createdAt,value
2018-02-04T00:02:13.646Z,9.40
2018-02-04T00:04:41.269Z,10.33
2018-02-04T00:07:08.860Z,10.33
2018-02-04T00:09:36.560Z,10.77
2018-02-04T00:12:04.186Z,10.37
2018-02-04T00:14:31.788Z,10.20
2018-02-04T00:16:59.433Z,9.23
2018-02-04T00:19:27.607Z,9.73
2018-02-04T00:21:55.489Z,8.80
2018-02-04T00:24:23.079Z,10.30
2018-02-04T00:26:51.439Z,9.43
2018-02-04T00:29:20.577Z,11.20
2018-02-04T00:31:48.175Z,10.90
2018-02-04T00:34:15.792Z,7.43
2018-02-04T00:36:44.169Z,11.00
2018-02-04T00:39:12.576Z,11.17
2018-02-04T00:41:40.168Z,11.60
2018-02-04T00:44:07.810Z,10.10
2018-02-04T00:46:35.437Z,7.97
2018-02-04T00:49:03.055Z,11.10
2018-02-04T00:51:31.457Z,10.13
2018-02-04T00:53:59.071Z,9.00
2018-02-04T00:56:26.668Z,9.57
2018-02-04T00:58:54.309Z,10.30
2018-02-04T01:01:21.909Z,8.37
2018-02-04T01:03:50.309Z,9.37
2018-02-04T01:06:17.900Z,7.70
2018-02-04T01:08:45.493Z,9.00
2018-02-04T01:11:13.120Z,8.50
2018-02-04T01:13:40.712Z,7.60
2018-02-04T01:16:08.439Z,10.00
2018-02-04T01:18:36.033Z,7.60
2018-02-04T01:21:04.396Z,8.97
2018-02-04T01:23:32.012Z,9.53
2018-02-04T01:25:59.613Z,11.30
2018-02-04T01:28:27.294Z,8.00
2018-02-04T01:30:54.900Z,10.07
2018-02-04T01:33:22.597Z,10.00
2018-02-04T01:35:50.385Z,10.70
2018-02-04T01:38:17.975Z,9.20
2018-02-04T01:40:45.617Z,9.83
2018-02-04T01:43:13.203Z,7.20
2018-02-04T01:45:40.810Z,7.80
2018-02-04T01:48:08.424Z,9.20
2018-02-04T01:50:36.024Z,9.60
2018-02-04T01:53:03.645Z,9.70
2018-02-04T01:55:31.245Z,9.57
2018-02-04T01:57:58.872Z,10.10
2018-02-04T02:00:26.472Z,8.10
2018-02-04T02:02:54.100Z,9.70
2018-02-04T02:05:21.701Z,8.50
2018-02-04T02:07:49.301Z,10.67
2018-02-04T02:10:17.684Z,9.77
2018-02-04T02:12:46.036Z,9.70
2018-02-04T02:15:13.655Z,9.30
2018-02-04T02:17:41.251Z,9.07
2018-02-04T02:20:08.989Z,8.40
2018-02-04T02:22:36.643Z,9.80
2018-02-04T02:25:04.277Z,8.10
2018-02-04T02:27:31.876Z,7.83
2018-02-04T02:29:59.528Z,8.77
2018-02-04T02:32:27.120Z,8.30
2018-02-04T02:34:54.741Z,7.70
2018-02-04T02:37:22.335Z,6.90
2018-02-04T02:39:49.936Z,7.77
2018-02-04T02:42:17.556Z,9.27
2018-02-04T02:44:45.149Z,7.30
2018-02-04T02:47:13.529Z,8.97
2018-02-04T02:49:41.884Z,6.90
2018-02-04T02:52:09.513Z,8.13
2018-02-04T02:54:37.112Z,8.63
2018-02-04T02:57:04.704Z,7.53
2018-02-04T02:59:32.322Z,7.97
2018-02-04T03:01:59.915Z,8.83
2018-02-04T03:04:28.295Z,9.53
2018-02-04T03:06:56.112Z,9.60
2018-02-04T03:09:23.745Z,7.97
2018-02-04T03:11:51.600Z,9.57
2018-02-04T03:14:19.192Z,8.73
2018-02-04T03:16:46.819Z,8.90
2018-02-04T03:19:14.417Z,9.10
2018-02-04T03:21:42.034Z,9.37
2018-02-04T03:24:09.636Z,9.90
2018-02-04T03:26:37.260Z,8.87
2018-02-04T03:29:04.863Z,8.00
2018-02-04T03:31:32.461Z,9.63
2018-02-04T03:34:00.883Z,8.70
2018-02-04T03:36:28.549Z,8.30
2018-02-04T03:38:56.152Z,9.40
2018-02-04T03:41:23.776Z,8.80
2018-02-04T03:43:51.375Z,7.97
2018-02-04T03:46:19.740Z,8.00
2018-02-04T03:48:47.369Z,8.40
2018-02-04T03:51:14.964Z,8.23
2018-02-04T03:53:42.592Z,9.10
2018-02-04T03:56:10.183Z,8.20
2018-02-04T03:58:37.777Z,7.93
2018-02-04T04:01:05.414Z,8.47
2018-02-04T04:03:33.022Z,8.33
2018-02-04T04:06:00.661Z,9.00
2018-02-04T04:08:28.261Z,9.50
2018-02-04T04:10:55.858Z,7.07
2018-02-04T04:13:24.231Z,8.97
2018-02-04T04:15:51.819Z,6.13
2018-02-04T04:18:19.431Z,6.60
2018-02-04T04:20:47.028Z,8.63
2018-02-04T04:23:15.408Z,9.20
2018-02-04T04:25:43.765Z,9.43
2018-02-04T04:28:11.398Z,10.40
2018-02-04T04:30:38.992Z,9.00
2018-02-04T04:33:06.613Z,9.60
2018-02-04T04:35:34.213Z,10.03
2018-02-04T04:38:01.837Z,10.10
2018-02-04T04:40:29.436Z,10.00
2018-02-04T04:42:57.081Z,7.33
2018-02-04T04:45:24.682Z,9.60
2018-02-04T04:47:52.281Z,9.70
2018-02-04T04:50:19.932Z,10.07
2018-02-04T04:52:47.528Z,10.80
2018-02-04T04:55:15.921Z,6.90
2018-02-04T04:57:43.507Z,9.03
2018-02-04T05:00:11.141Z,10.10
2018-02-04T05:02:38.739Z,10.20
2018-02-04T05:05:06.337Z,9.60
2018-02-04T05:07:33.954Z,9.90
2018-02-04T05:10:01.553Z,9.03
2018-02-04T05:12:29.192Z,10.03
2018-02-04T05:14:56.802Z,10.70
2018-02-04T05:17:24.397Z,11.50
2018-02-04T05:19:52.024Z,10.30
2018-02-04T05:22:19.653Z,10.93
2018-02-04T05:24:47.271Z,9.53
2018-02-04T05:27:15.640Z,10.10
2018-02-04T05:29:44.000Z,11.03
2018-02-04T05:32:11.633Z,10.43
2018-02-04T05:34:39.237Z,10.33
2018-02-04T05:37:07.632Z,9.87
2018-02-04T05:39:35.235Z,9.57
2018-02-04T05:42:02.884Z,9.03
2018-02-04T05:44:30.497Z,9.40
2018-02-04T05:46:58.856Z,8.73
2018-02-04T05:49:26.473Z,9.53
2018-02-04T05:51:54.072Z,9.87
2018-02-04T05:54:21.732Z,9.17
2018-02-04T05:56:50.836Z,9.20
2018-02-04T05:59:19.264Z,10.23
2018-02-04T06:01:47.150Z,10.27
2018-02-04T06:04:14.749Z,11.20
2018-02-04T06:06:42.376Z,9.67
2018-02-04T06:09:09.981Z,11.10
2018-02-04T06:11:38.364Z,10.43
2018-02-04T06:14:06.727Z,10.27
2018-02-04T06:16:34.351Z,10.60
2018-02-04T06:19:01.944Z,11.17
2018-02-04T06:21:29.544Z,11.27
2018-02-04T06:23:57.181Z,11.90
2018-02-04T06:26:25.548Z,11.80
2018-02-04T06:28:53.173Z,11.77
2018-02-04T06:31:20.764Z,10.80
2018-02-04T06:33:48.391Z,10.90
2018-02-04T06:36:16.040Z,10.47
2018-02-04T06:38:43.628Z,10.67
2018-02-04T06:41:11.247Z,10.20
2018-02-04T06:43:38.840Z,9.60
2018-02-04T06:46:06.465Z,10.30
2018-02-04T06:48:34.064Z,9.67
2018-02-04T06:51:01.692Z,10.23
2018-02-04T06:53:29.285Z,11.47
2018-02-04T06:55:56.877Z,10.50
2018-02-04T06:58:24.601Z,10.27
2018-02-04T07:00:52.192Z,11.50
2018-02-04T07:03:20.571Z,11.17
2018-02-04T07:05:48.164Z,11.30
2018-02-04T07:08:16.557Z,10.77
2018-02-04T07:10:44.161Z,12.70
2018-02-04T07:13:11.787Z,10.30
2018-02-04T07:15:39.396Z,11.37
2018-02-04T07:18:07.031Z,9.70
2018-02-04T07:20:34.631Z,9.50
2018-02-04T07:23:03.018Z,10.83
2018-02-04T07:25:31.389Z,10.20
2018-02-04T07:27:59.794Z,12.00
2018-02-04T07:30:27.395Z,9.70
2018-02-04T07:32:55.016Z,10.37
2018-02-04T07:35:22.633Z,11.17
2018-02-04T07:37:50.228Z,10.20
2018-02-04T07:40:17.856Z,9.87
2018-02-04T07:42:45.448Z,11.67
2018-02-04T07:45:13.835Z,10.47
2018-02-04T07:47:41.434Z,9.00
2018-02-04T07:50:09.056Z,9.10
2018-02-04T07:52:36.735Z,11.27
2018-02-04T07:55:04.339Z,9.97
2018-02-04T07:57:31.951Z,9.27
2018-02-04T07:59:59.579Z,10.37
2018-02-04T08:02:27.973Z,9.23
2018-02-04T08:04:55.575Z,10.97
2018-02-04T08:07:23.192Z,9.23
2018-02-04T08:09:51.552Z,10.87
2018-02-04T08:12:19.940Z,10.60
2018-02-04T08:14:48.312Z,10.83
2018-02-04T08:17:16.693Z,9.87
2018-02-04T08:19:45.251Z,8.90
2018-02-04T08:22:12.871Z,9.60
2018-02-04T08:24:40.515Z,8.90
2018-02-04T08:27:08.912Z,9.07
2018-02-04T08:29:36.516Z,10.73
2018-02-04T08:32:04.136Z,9.43
2018-02-04T08:34:31.741Z,7.67
2018-02-04T08:37:00.869Z,7.67
2018-02-04T08:39:29.230Z,7.63
2018-02-04T08:41:57.666Z,8.30
2018-02-04T08:44:25.256Z,8.90
2018-02-04T08:46:52.881Z,10.53
2018-02-04T08:49:22.808Z,10.80
2018-02-04T08:51:51.351Z,11.20
2018-02-04T08:54:19.168Z,9.60
2018-02-04T08:56:46.814Z,11.00
2018-02-04T08:59:14.414Z,9.27
2018-02-04T09:01:42.089Z,11.07
2018-02-04T09:04:09.668Z,10.13
2018-02-04T09:06:37.289Z,9.67
2018-02-04T09:09:05.640Z,8.80
2018-02-04T09:11:33.300Z,10.60
2018-02-04T09:14:00.912Z,11.00
2018-02-04T09:16:29.312Z,11.33
2018-02-04T09:18:56.900Z,9.90
2018-02-04T09:21:24.520Z,9.87
2018-02-04T09:23:52.881Z,10.00
2018-02-04T09:26:20.522Z,9.73
2018-02-04T09:28:48.872Z,9.67
2018-02-04T09:31:16.476Z,10.10
2018-02-04T09:33:44.868Z,11.20
2018-02-04T09:36:13.240Z,9.40
2018-02-04T09:38:41.629Z,7.77
2018-02-04T09:41:09.983Z,10.10
2018-02-04T09:43:37.821Z,10.50
2018-02-04T09:46:05.427Z,8.70
2018-02-04T09:48:33.814Z,8.40
2018-02-04T09:51:02.169Z,9.83
2018-02-04T09:53:29.796Z,8.97
2018-02-04T09:55:57.386Z,8.80
2018-02-04T09:58:25.001Z,8.10
2018-02-04T10:00:52.592Z,9.10
2018-02-04T10:03:20.244Z,8.33
2018-02-04T10:05:47.836Z,10.27
2018-02-04T10:08:15.436Z,9.10
2018-02-04T10:10:43.062Z,9.20
2018-02-04T10:13:11.412Z,8.00
2018-02-04T10:15:39.042Z,8.30
2018-02-04T10:18:06.632Z,8.27
2018-02-04T10:20:34.279Z,8.00
2018-02-04T10:23:01.876Z,7.00
2018-02-04T10:25:29.680Z,8.57
2018-02-04T10:27:59.037Z,8.80
2018-02-04T10:30:26.758Z,7.43
2018-02-04T10:32:54.360Z,7.40
2018-02-04T10:35:21.975Z,8.07
2018-02-04T10:37:49.572Z,7.77
2018-02-04T10:40:17.197Z,9.53
2018-02-04T10:42:44.785Z,6.07
2018-02-04T10:45:12.400Z,7.60
2018-02-04T10:47:40.032Z,7.17
2018-02-04T10:50:07.656Z,7.30
2018-02-04T10:52:35.244Z,7.63
2018-02-04T10:55:04.376Z,6.50
2018-02-04T10:57:31.968Z,8.37
2018-02-04T10:59:59.592Z,7.17
2018-02-04T11:02:27.971Z,7.73
2018-02-04T11:04:56.363Z,8.53
2018-02-04T11:07:23.955Z,9.53
2018-02-04T11:09:51.613Z,8.47
2018-02-04T11:12:19.234Z,9.00
2018-02-04T11:14:47.595Z,9.63
2018-02-04T11:17:15.218Z,8.93
2018-02-04T11:19:42.830Z,10.13
2018-02-04T11:22:11.225Z,8.90
2018-02-04T11:24:38.826Z,10.00
2018-02-04T11:27:06.447Z,9.47
2018-02-04T11:29:34.048Z,8.13
2018-02-04T11:32:01.645Z,10.00
2018-02-04T11:34:30.035Z,9.83
2018-02-04T11:36:57.656Z,10.00
2018-02-04T11:39:25.275Z,9.57
2018-02-04T11:41:52.860Z,7.63
2018-02-04T11:44:20.477Z,8.63
2018-02-04T11:46:48.840Z,10.20
2018-02-04T11:49:17.220Z,10.50
2018-02-04T11:51:45.614Z,10.87
2018-02-04T11:54:13.984Z,9.50
2018-02-04T11:56:42.360Z,9.50
2018-02-04T11:59:10.721Z,8.30
2018-02-04T12:01:38.344Z,8.03
2018-02-04T12:04:05.932Z,7.63
2018-02-04T12:06:33.765Z,8.20
2018-02-04T12:09:01.388Z,7.80
2018-02-04T12:11:29.757Z,8.17
2018-02-04T12:13:57.376Z,7.97
2018-02-04T12:16:24.975Z,8.43
2018-02-04T12:18:52.595Z,8.07
2018-02-04T12:21:20.187Z,7.23
2018-02-04T12:23:47.812Z,7.17
2018-02-04T12:26:15.461Z,6.67
2018-02-04T12:28:43.051Z,8.10
2018-02-04T12:31:10.669Z,6.53
2018-02-04T12:33:38.272Z,7.90
2018-02-04T12:36:05.888Z,8.60
2018-02-04T12:38:33.484Z,7.20
2018-02-04T12:41:01.169Z,6.27
2018-02-04T12:43:28.760Z,9.13
2018-02-04T12:45:57.156Z,8.63
2018-02-04T12:48:24.748Z,8.40
2018-02-04T12:50:52.380Z,8.87
2018-02-04T12:53:19.984Z,8.60
2018-02-04T12:55:48.376Z,6.50
2018-02-04T12:58:16.733Z,8.13
2018-02-04T13:00:44.356Z,9.07
2018-02-04T13:03:11.957Z,8.20
2018-02-04T13:05:39.582Z,8.10
2018-02-04T13:08:07.187Z,7.03
2018-02-04T13:10:34.804Z,7.70
2018-02-04T13:13:02.400Z,7.90
2018-02-04T13:15:29.995Z,7.33
2018-02-04T13:17:58.385Z,7.80
2018-02-04T13:20:26.753Z,8.30
2018-02-04T13:22:55.141Z,7.77
2018-02-04T13:25:23.509Z,8.53
2018-02-04T13:27:51.908Z,7.87
2018-02-04T13:30:19.503Z,8.00
2018-02-04T13:32:47.093Z,6.63
2018-02-04T13:35:14.733Z,8.63
2018-02-04T13:37:42.333Z,8.40
2018-02-04T13:40:10.720Z,9.07
2018-02-04T13:42:39.085Z,9.33
2018-02-04T13:45:07.478Z,8.27
2018-02-04T13:47:35.848Z,9.40
2018-02-04T13:50:04.204Z,9.33
2018-02-04T13:52:31.816Z,9.00
2018-02-04T13:54:59.407Z,10.90
2018-02-04T13:57:27.073Z,9.87
2018-02-04T13:59:54.668Z,8.63
2018-02-04T14:02:23.115Z,7.00
2018-02-04T14:04:50.759Z,9.10
2018-02-04T14:07:18.360Z,9.43
2018-02-04T14:09:45.972Z,6.83
2018-02-04T14:12:13.560Z,7.40
2018-02-04T14:14:41.176Z,8.77
2018-02-04T14:17:08.784Z,8.40
2018-02-04T14:19:36.420Z,8.57
2018-02-04T14:22:04.025Z,8.90
2018-02-04T14:24:31.619Z,8.60
2018-02-04T14:26:59.289Z,8.20
2018-02-04T14:29:26.881Z,10.10
2018-02-04T14:31:54.496Z,8.13
2018-02-04T14:34:22.097Z,9.27
2018-02-04T14:36:49.727Z,9.90
2018-02-04T14:39:17.320Z,8.87
2018-02-04T14:41:44.913Z,9.27
2018-02-04T14:44:12.538Z,10.20
2018-02-04T14:46:40.138Z,10.70
2018-02-04T14:49:08.517Z,9.43
2018-02-04T14:51:36.872Z,9.23
2018-02-04T14:54:04.505Z,10.47
2018-02-04T14:56:32.097Z,10.00
2018-02-04T14:58:59.702Z,10.03
2018-02-04T15:01:27.325Z,10.13
2018-02-04T15:03:54.928Z,10.23
2018-02-04T15:06:22.555Z,8.90
2018-02-04T15:08:50.147Z,9.27
2018-02-04T15:11:17.777Z,9.80
2018-02-04T15:13:45.375Z,9.30
2018-02-04T15:16:12.969Z,9.97
2018-02-04T15:18:40.592Z,10.77
2018-02-04T15:21:08.187Z,9.20
2018-02-04T15:23:35.818Z,10.17
2018-02-04T15:26:03.419Z,10.53
2018-02-04T15:28:31.053Z,11.43
2018-02-04T15:30:58.654Z,9.73
2018-02-04T15:33:26.257Z,11.87
2018-02-04T15:35:53.881Z,9.73
2018-02-04T15:38:21.476Z,9.30
2018-02-04T15:40:49.102Z,10.50
2018-02-04T15:43:16.699Z,10.80
2018-02-04T15:45:44.328Z,11.30
2018-02-04T15:48:11.923Z,10.87
2018-02-04T15:50:39.524Z,10.77
2018-02-04T15:53:07.163Z,9.90
2018-02-04T15:55:34.750Z,11.10
2018-02-04T15:58:02.395Z,10.13
2018-02-04T16:00:29.987Z,10.17
2018-02-04T16:02:57.638Z,9.97
2018-02-04T16:05:25.237Z,10.10
2018-02-04T16:07:52.838Z,11.37
2018-02-04T16:10:20.456Z,10.00
2018-02-04T16:12:48.062Z,9.77
2018-02-04T16:15:15.676Z,10.90
2018-02-04T16:17:44.036Z,10.30
2018-02-04T16:20:11.660Z,12.07
2018-02-04T16:22:39.260Z,10.33
2018-02-04T16:25:07.653Z,10.07
2018-02-04T16:27:36.008Z,10.90
2018-02-04T16:30:03.641Z,11.67
2018-02-04T16:32:31.236Z,11.20
2018-02-04T16:34:58.832Z,14.97
2018-02-04T16:37:26.460Z,11.37
2018-02-04T16:39:54.821Z,14.40
2018-02-04T16:42:22.464Z,13.70
2018-02-04T16:44:50.058Z,13.07
2018-02-04T16:47:18.421Z,15.20
2018-02-04T16:49:46.340Z,13.70
2018-02-04T16:52:13.941Z,12.00
2018-02-04T16:54:41.576Z,12.00
2018-02-04T16:57:09.206Z,11.00
2018-02-04T16:59:37.564Z,11.80
2018-02-04T17:02:05.969Z,11.53
2018-02-04T17:04:33.566Z,11.30
2018-02-04T17:07:01.197Z,13.90
2018-02-04T17:09:28.808Z,10.67
2018-02-04T17:11:56.442Z,10.00
2018-02-04T17:14:24.073Z,12.13
2018-02-04T17:16:51.670Z,11.30
2018-02-04T17:19:19.297Z,11.60
2018-02-04T17:21:46.891Z,10.70
2018-02-04T17:24:14.528Z,11.67
2018-02-04T17:26:42.128Z,13.53
2018-02-04T17:29:09.733Z,12.50
2018-02-04T17:31:37.654Z,11.23
2018-02-04T17:34:05.253Z,9.97
2018-02-04T17:36:33.641Z,12.23
2018-02-04T17:39:01.247Z,10.63
2018-02-04T17:41:28.873Z,11.03
2018-02-04T17:43:56.470Z,12.40
2018-02-04T17:46:24.096Z,10.53
2018-02-04T17:48:51.693Z,11.57
2018-02-04T17:51:19.770Z,11.67
2018-02-04T17:53:47.796Z,11.20
2018-02-04T17:56:15.429Z,10.50
2018-02-04T17:58:44.084Z,10.10
2018-02-04T18:01:11.716Z,13.03
2018-02-04T18:03:39.319Z,10.80
2018-02-04T18:06:06.948Z,12.30
2018-02-04T18:08:34.541Z,11.30
2018-02-04T18:11:03.691Z,11.57
2018-02-04T18:13:32.930Z,12.17
2018-02-04T18:16:00.530Z,11.67
2018-02-04T18:18:28.148Z,11.30
2018-02-04T18:20:55.746Z,11.67
2018-02-04T18:23:24.144Z,13.57
2018-02-04T18:25:51.739Z,12.70
2018-02-04T18:28:19.374Z,11.67
2018-02-04T18:30:46.972Z,11.00
2018-02-04T18:33:14.580Z,12.67
2018-02-04T18:35:42.213Z,10.93
2018-02-04T18:38:09.821Z,9.50
2018-02-04T18:40:37.444Z,12.27
2018-02-04T18:43:05.801Z,13.27
2018-02-04T18:45:34.917Z,9.50
2018-02-04T18:48:03.286Z,11.63
2018-02-04T18:50:30.910Z,11.50
2018-02-04T18:52:58.505Z,13.07
2018-02-04T18:55:26.132Z,12.23
2018-02-04T18:57:53.760Z,11.57
2018-02-04T19:00:21.384Z,10.10
2018-02-04T19:02:49.753Z,11.80
2018-02-04T19:05:17.384Z,10.77
2018-02-04T19:07:45.012Z,10.73
2018-02-04T19:10:12.615Z,12.33
2018-02-04T19:12:40.245Z,12.20
2018-02-04T19:15:07.843Z,11.60
2018-02-04T19:17:35.464Z,10.13
2018-02-04T19:20:03.076Z,11.13
2018-02-04T19:22:30.769Z,10.50
2018-02-04T19:24:58.338Z,9.80
2018-02-04T19:27:26.738Z,11.47
2018-02-04T19:29:54.340Z,10.80
2018-02-04T19:32:22.748Z,10.77
2018-02-04T19:34:51.112Z,11.90
2018-02-04T19:37:19.484Z,13.33
2018-02-04T19:39:47.113Z,12.20
2018-02-04T19:42:14.713Z,13.40
2018-02-04T19:44:42.342Z,14.07
2018-02-04T19:47:09.935Z,12.70
2018-02-04T19:49:37.560Z,12.23
2018-02-04T19:52:05.148Z,10.87
2018-02-04T19:54:32.785Z,11.50
2018-02-04T19:57:01.136Z,8.87
2018-02-04T19:59:28.733Z,10.70
2018-02-04T20:01:56.361Z,10.80
2018-02-04T20:04:23.962Z,11.80
2018-02-04T20:06:51.588Z,10.50
2018-02-04T20:09:19.181Z,10.23
2018-02-04T20:11:46.805Z,9.27
2018-02-04T20:14:14.450Z,9.70
2018-02-04T20:16:42.097Z,9.33
2018-02-04T20:19:10.466Z,10.40
2018-02-04T20:21:38.858Z,8.43
2018-02-04T20:24:07.217Z,9.50
2018-02-04T20:26:34.860Z,9.37
2018-02-04T20:29:02.450Z,9.27
2018-02-04T20:31:30.809Z,8.17
2018-02-04T20:34:10.410Z,8.70
2018-02-04T20:36:38.012Z,9.30
2018-02-04T20:39:05.634Z,8.30
2018-02-04T20:41:33.229Z,9.07
2018-02-04T20:44:00.850Z,8.60
2018-02-04T20:46:28.450Z,8.00
2018-02-04T20:48:56.837Z,7.70
2018-02-04T20:51:24.428Z,8.20
2018-02-04T20:53:52.074Z,7.30
2018-02-04T20:56:20.437Z,8.20
2018-02-04T20:58:48.890Z,7.10
2018-02-04T21:01:16.479Z,8.17
2018-02-04T21:03:44.129Z,6.93
2018-02-04T21:06:11.721Z,7.63
2018-02-04T21:08:42.334Z,8.57
2018-02-04T21:11:11.437Z,6.83
2018-02-04T21:13:39.821Z,6.70
2018-02-04T21:16:08.192Z,6.77
2018-02-04T21:18:35.820Z,6.20
2018-02-04T21:21:03.410Z,6.90
2018-02-04T21:23:31.037Z,6.40
2018-02-04T21:25:58.634Z,5.77
2018-02-04T21:28:26.260Z,5.90
2018-02-04T21:30:53.856Z,6.60
2018-02-04T21:33:22.216Z,6.93
2018-02-04T21:35:49.850Z,6.40
2018-02-04T21:38:17.474Z,5.70
2018-02-04T21:40:45.903Z,6.60
2018-02-04T21:43:13.494Z,6.07
2018-02-04T21:45:41.119Z,5.57
2018-02-04T21:48:08.884Z,5.83
2018-02-04T21:50:36.523Z,5.77
2018-02-04T21:53:04.118Z,6.40
2018-02-04T21:55:31.731Z,6.10
2018-02-04T21:58:01.378Z,5.87
2018-02-04T22:00:29.922Z,5.80
2018-02-04T22:02:57.518Z,5.30
2018-02-04T22:05:25.142Z,5.23
2018-02-04T22:07:52.738Z,5.70
2018-02-04T22:10:20.365Z,6.00
2018-02-04T22:12:47.958Z,4.77
2018-02-04T22:15:15.548Z,5.20
2018-02-04T22:17:43.178Z,5.67
2018-02-04T22:20:10.771Z,5.10
2018-02-04T22:22:38.619Z,5.67
2018-02-04T22:25:06.204Z,5.20
2018-02-04T22:27:34.589Z,5.70
2018-02-04T22:30:02.944Z,6.23
2018-02-04T22:32:30.564Z,5.77
2018-02-04T22:34:58.153Z,5.40
2018-02-04T22:37:25.737Z,5.40
2018-02-04T22:39:53.354Z,5.13
2018-02-04T22:42:20.945Z,6.70
2018-02-04T22:44:48.565Z,7.50
2018-02-04T22:47:16.365Z,6.70
2018-02-04T22:49:44.241Z,5.57
2018-02-04T22:52:13.337Z,5.47
2018-02-04T22:54:40.936Z,6.00
2018-02-04T22:57:08.552Z,5.97
2018-02-04T22:59:36.136Z,6.37
2018-02-04T23:02:03.766Z,5.53
2018-02-04T23:04:31.357Z,6.53
2018-02-04T23:06:59.301Z,6.10
2018-02-04T23:09:27.059Z,5.80
2018-02-04T23:11:54.653Z,5.87
2018-02-04T23:14:23.050Z,5.53
2018-02-04T23:16:50.633Z,4.50
2018-02-04T23:19:18.244Z,5.60
2018-02-04T23:21:45.836Z,5.37
2018-02-04T23:24:13.468Z,5.30
2018-02-04T23:26:41.061Z,4.57
2018-02-04T23:29:08.648Z,5.47
2018-02-04T23:31:36.269Z,4.73
2018-02-04T23:34:04.636Z,5.37
2018-02-04T23:36:33.048Z,5.17
2018-02-04T23:39:00.630Z,5.20
2018-02-04T23:41:28.259Z,4.90
2018-02-04T23:43:55.846Z,5.00
2018-02-04T23:46:23.476Z,4.67
2018-02-04T23:48:51.065Z,4.90
2018-02-04T23:51:18.648Z,5.30
2018-02-04T23:53:46.273Z,4.60
2018-02-04T23:56:13.873Z,4.80
2018-02-04T23:58:42.263Z,4.43
